createdAt,value
2023-01-12T00:00:44.609Z,11.44
2023-01-12T00:03:20.528Z,11.33
2023-01-12T00:05:58.567Z,11.44
2023-01-12T00:08:33.339Z,11.27
2023-01-12T00:11:06.733Z,11.35
2023-01-12T00:13:42.799Z,11.49
2023-01-12T00:16:38.917Z,11.37
2023-01-12T00:19:15.663Z,11.27
2023-01-12T00:21:59.431Z,11.19
2023-01-12T00:24:40.306Z,11.34
2023-01-12T00:27:20.402Z,11.32
2023-01-12T00:29:58.665Z,11.41
2023-01-12T00:32:33.490Z,11.43
2023-01-12T00:35:07.784Z,11.33
2023-01-12T00:37:48.065Z,11.35
2023-01-12T00:40:21.151Z,11.29
2023-01-12T00:43:14.509Z,11.35
2023-01-12T00:45:50.653Z,11.43
2023-01-12T00:48:25.783Z,11.38
2023-01-12T00:50:58.853Z,11.47
2023-01-12T00:53:32.633Z,11.49
2023-01-12T00:56:06.876Z,11.54
2023-01-12T00:58:39.819Z,11.36
2023-01-12T01:01:15.623Z,11.57
2023-01-12T01:03:50.662Z,11.54
2023-01-12T01:06:23.865Z,11.57
2023-01-12T01:08:59.114Z,11.60
2023-01-12T01:11:31.994Z,11.60
2023-01-12T01:14:05.208Z,11.58
2023-01-12T01:16:38.346Z,11.33
2023-01-12T01:19:12.998Z,11.61
2023-01-12T01:21:45.890Z,11.45
2023-01-12T01:24:18.706Z,11.45
2023-01-12T01:26:52.125Z,11.69
2023-01-12T01:29:25.201Z,11.64
2023-01-12T01:31:58.736Z,11.43
2023-01-12T01:34:33.201Z,11.55
2023-01-12T01:37:06.073Z,11.66
2023-01-12T01:39:39.067Z,11.59
2023-01-12T01:42:27.849Z,11.59
2023-01-12T01:45:03.623Z,11.67
2023-01-12T01:47:41.242Z,11.73
2023-01-12T01:50:24.870Z,11.74
2023-01-12T01:53:01.300Z,11.73
2023-01-12T01:55:38.704Z,11.68
2023-01-12T01:58:16.166Z,11.72
2023-01-12T02:00:49.467Z,11.68
2023-01-12T02:03:22.652Z,11.67
2023-01-12T02:05:58.771Z,11.62
2023-01-12T02:08:36.220Z,11.63
2023-01-12T02:11:30.579Z,11.69
2023-01-12T02:14:21.407Z,11.70
2023-01-12T02:17:04.429Z,11.75
2023-01-12T02:20:10.374Z,11.66
2023-01-12T02:23:11.810Z,11.73
2023-01-12T02:26:21.922Z,11.63
2023-01-12T02:29:38.196Z,11.73
2023-01-12T02:32:21.446Z,11.77
2023-01-12T02:35:06.088Z,11.65
2023-01-12T02:37:46.832Z,11.66
2023-01-12T02:40:27.193Z,11.75
2023-01-12T02:43:08.690Z,11.73
2023-01-12T02:45:47.790Z,11.76
2023-01-12T02:48:27.125Z,11.77
2023-01-12T02:51:06.777Z,11.63
2023-01-12T02:53:47.607Z,11.61
2023-01-12T02:56:27.447Z,11.50
2023-01-12T02:59:05.029Z,11.40
2023-01-12T03:01:38.991Z,11.59
2023-01-12T03:04:15.703Z,11.55
2023-01-12T03:07:27.992Z,11.47
2023-01-12T03:10:16.239Z,11.51
2023-01-12T03:12:51.547Z,11.44
2023-01-12T03:15:28.976Z,11.36
2023-01-12T03:18:09.161Z,11.56
2023-01-12T03:20:50.118Z,11.48
2023-01-12T03:23:31.197Z,11.49
2023-01-12T03:26:09.290Z,11.35
2023-01-12T03:28:48.234Z,11.46
2023-01-12T03:31:23.144Z,11.51
2023-01-12T03:34:00.210Z,11.39
2023-01-12T03:36:44.785Z,11.56
2023-01-12T03:39:30.393Z,11.68
2023-01-12T03:42:11.183Z,11.48
2023-01-12T03:44:55.959Z,11.57
2023-01-12T03:47:32.182Z,11.51
2023-01-12T03:50:08.150Z,11.50
2023-01-12T03:52:49.050Z,11.51
2023-01-12T03:55:32.458Z,11.53
2023-01-12T03:58:06.807Z,11.65
2023-01-12T04:00:43.476Z,11.67
2023-01-12T04:03:20.394Z,11.37
2023-01-12T04:05:53.992Z,11.48
2023-01-12T04:08:28.753Z,11.13
2023-01-12T04:11:23.975Z,11.23
2023-01-12T04:13:56.916Z,11.38
2023-01-12T04:16:30.550Z,11.39
2023-01-12T04:19:04.040Z,11.43
2023-01-12T04:21:54.938Z,11.34
2023-01-12T04:24:29.711Z,11.34
2023-01-12T04:27:02.913Z,11.56
2023-01-12T04:29:38.842Z,11.67
2023-01-12T04:32:16.090Z,11.66
2023-01-12T04:34:53.762Z,11.53
2023-01-12T04:37:27.595Z,11.73
2023-01-12T04:40:02.804Z,11.78
2023-01-12T04:42:54.742Z,11.56
2023-01-12T04:45:27.864Z,11.53
2023-01-12T04:48:05.185Z,11.60
2023-01-12T04:50:41.162Z,11.63
2023-01-12T04:53:14.824Z,11.63
2023-01-12T04:55:49.728Z,11.75
2023-01-12T04:58:23.744Z,11.82
2023-01-12T05:00:56.907Z,11.67
2023-01-12T05:03:29.944Z,11.48
2023-01-12T05:06:02.917Z,11.55
2023-01-12T05:08:53.846Z,11.76
2023-01-12T05:11:29.338Z,11.60
2023-01-12T05:14:02.326Z,11.66
2023-01-12T05:16:35.148Z,11.72
2023-01-12T05:19:08.098Z,11.62
2023-01-12T05:21:40.915Z,11.71
2023-01-12T05:24:13.950Z,11.78
2023-01-12T05:26:51.170Z,11.82
2023-01-12T05:29:24.251Z,11.80
2023-01-12T05:31:57.390Z,11.74
2023-01-12T05:34:30.269Z,11.85
2023-01-12T05:37:03.175Z,12.05
2023-01-12T05:39:35.938Z,11.94
2023-01-12T05:42:27.978Z,12.03
2023-01-12T05:45:00.923Z,11.99
2023-01-12T05:47:33.820Z,12.10
2023-01-12T05:50:07.646Z,11.95
2023-01-12T05:52:40.651Z,11.97
2023-01-12T05:55:13.796Z,11.86
2023-01-12T05:57:48.414Z,12.13
2023-01-12T06:00:21.990Z,12.21
2023-01-12T06:02:55.104Z,12.05
2023-01-12T06:05:30.667Z,12.10
2023-01-12T06:08:03.587Z,12.21
2023-01-12T06:10:37.132Z,11.98
2023-01-12T06:13:28.986Z,12.21
2023-01-12T06:16:05.254Z,12.14
2023-01-12T06:18:40.360Z,12.32
2023-01-12T06:21:13.555Z,12.21
2023-01-12T06:23:46.525Z,12.40
2023-01-12T06:26:19.261Z,12.28
2023-01-12T06:28:53.733Z,12.48
2023-01-12T06:31:27.096Z,12.47
2023-01-12T06:34:00.377Z,12.37
2023-01-12T06:36:33.844Z,12.49
2023-01-12T06:39:13.825Z,12.49
2023-01-12T06:42:04.377Z,12.20
2023-01-12T06:44:44.985Z,12.22
2023-01-12T06:47:18.109Z,12.18
2023-01-12T06:49:56.308Z,12.04
2023-01-12T06:52:30.368Z,12.20
2023-01-12T06:55:03.583Z,12.06
2023-01-12T06:57:36.693Z,12.37
2023-01-12T07:00:13.116Z,12.30
2023-01-12T07:02:45.955Z,12.41
2023-01-12T07:05:18.996Z,12.36
2023-01-12T07:07:58.629Z,12.50
2023-01-12T07:10:32.613Z,12.41
2023-01-12T07:13:05.390Z,12.54
2023-01-12T07:15:39.618Z,12.56
2023-01-12T07:18:12.683Z,12.49
2023-01-12T07:20:45.868Z,12.33
2023-01-12T07:23:20.994Z,12.44
2023-01-12T07:25:53.807Z,12.37
2023-01-12T07:28:28.099Z,12.43
2023-01-12T07:31:41.094Z,12.48
2023-01-12T07:34:21.751Z,12.47
2023-01-12T07:37:16.365Z,12.39
2023-01-12T07:39:52.277Z,12.54
2023-01-12T07:42:26.713Z,12.57
2023-01-12T07:44:59.807Z,12.63
2023-01-12T07:47:39.041Z,12.49
2023-01-12T07:50:25.334Z,12.69
2023-01-12T07:53:08.235Z,12.64
2023-01-12T07:55:44.638Z,12.60
2023-01-12T07:58:17.908Z,12.50
2023-01-12T08:00:52.502Z,12.57
2023-01-12T08:03:27.397Z,12.60
2023-01-12T08:06:04.377Z,12.54
2023-01-12T08:08:37.950Z,12.44
2023-01-12T08:11:14.149Z,12.37
2023-01-12T08:13:47.315Z,12.48
2023-01-12T08:16:25.873Z,12.49
2023-01-12T08:19:06.631Z,12.65
2023-01-12T08:21:47.860Z,12.60
2023-01-12T08:24:25.895Z,12.62
2023-01-12T08:27:01.309Z,12.59
2023-01-12T08:29:42.029Z,12.73
2023-01-12T08:32:19.180Z,12.68
2023-01-12T08:35:00.335Z,12.73
2023-01-12T08:37:36.813Z,12.65
2023-01-12T08:40:11.665Z,12.69
2023-01-12T08:42:45.468Z,12.56
2023-01-12T08:45:21.615Z,12.58
2023-01-12T08:47:57.459Z,12.55
2023-01-12T08:50:31.853Z,12.63
2023-01-12T08:53:14.353Z,12.66
2023-01-12T08:55:56.081Z,12.71
2023-01-12T08:58:29.169Z,12.62
2023-01-12T09:01:08.776Z,12.60
2023-01-12T09:03:44.328Z,12.54
2023-01-12T09:06:23.891Z,12.53
2023-01-12T09:08:58.748Z,12.61
2023-01-12T09:11:32.970Z,12.65
2023-01-12T09:14:06.566Z,12.65
2023-01-12T09:16:39.960Z,12.73
2023-01-12T09:19:13.121Z,12.72
2023-01-12T09:21:47.096Z,12.83
2023-01-12T09:24:20.107Z,12.92
2023-01-12T09:26:52.813Z,12.91
2023-01-12T09:29:25.752Z,12.91
2023-01-12T09:31:58.644Z,12.80
2023-01-12T09:34:31.696Z,12.95
2023-01-12T09:37:05.651Z,12.94
2023-01-12T09:39:38.654Z,12.85
2023-01-12T09:42:36.131Z,12.82
2023-01-12T09:45:37.106Z,12.90
2023-01-12T09:48:13.079Z,12.82
2023-01-12T09:50:52.420Z,12.77
2023-01-12T09:53:31.195Z,12.74
2023-01-12T09:56:15.320Z,12.86
2023-01-12T09:59:16.540Z,12.97
2023-01-12T10:01:53.131Z,13.11
2023-01-12T10:04:26.544Z,13.15
2023-01-12T10:06:59.669Z,13.05
2023-01-12T10:09:34.807Z,13.06
2023-01-12T10:12:20.678Z,13.12
2023-01-12T10:15:16.507Z,13.04
2023-01-12T10:17:53.552Z,12.94
2023-01-12T10:20:33.357Z,12.93
2023-01-12T10:23:17.052Z,12.91
2023-01-12T10:25:59.582Z,13.03
2023-01-12T10:28:34.753Z,13.04
2023-01-12T10:31:10.224Z,13.15
2023-01-12T10:34:02.938Z,13.22
2023-01-12T10:36:38.176Z,13.09
2023-01-12T10:39:30.679Z,12.96
2023-01-12T10:42:39.109Z,13.22
2023-01-12T10:45:20.567Z,13.00
2023-01-12T10:47:54.272Z,13.15
2023-01-12T10:50:29.130Z,13.08
2023-01-12T10:53:05.840Z,13.19
2023-01-12T10:55:41.433Z,13.30
2023-01-12T10:58:22.831Z,13.23
2023-01-12T11:00:56.280Z,13.15
2023-01-12T11:03:33.970Z,13.23
2023-01-12T11:06:28.281Z,13.34
2023-01-12T11:09:18.607Z,13.13
2023-01-12T11:11:55.309Z,13.29
2023-01-12T11:14:32.512Z,13.27
2023-01-12T11:17:33.182Z,13.28
2023-01-12T11:20:16.279Z,13.27
2023-01-12T11:22:52.828Z,13.36
2023-01-12T11:25:28.941Z,13.32
2023-01-12T11:28:07.206Z,13.09
2023-01-12T11:30:45.945Z,13.36
2023-01-12T11:33:24.381Z,13.30
2023-01-12T11:36:04.107Z,13.16
2023-01-12T11:38:41.865Z,13.14
2023-01-12T11:41:23.081Z,13.18
2023-01-12T11:44:02.746Z,13.33
2023-01-12T11:46:46.590Z,13.35
2023-01-12T11:49:26.794Z,13.37
2023-01-12T11:52:05.422Z,13.27
2023-01-12T11:54:40.005Z,13.16
2023-01-12T11:57:47.890Z,13.24
2023-01-12T12:00:32.091Z,13.39
2023-01-12T12:03:27.190Z,13.38
2023-01-12T12:06:14.619Z,13.24
2023-01-12T12:08:56.463Z,13.40
2023-01-12T12:11:41.926Z,13.32
2023-01-12T12:14:29.050Z,13.36
2023-01-12T12:17:10.299Z,13.26
2023-01-12T12:19:54.109Z,13.39
2023-01-12T12:22:47.853Z,13.31
2023-01-12T12:25:27.136Z,13.20
2023-01-12T12:28:13.363Z,13.36
2023-01-12T12:31:17.398Z,13.29
2023-01-12T12:34:05.245Z,13.24
2023-01-12T12:36:48.493Z,13.31
2023-01-12T12:39:30.397Z,13.29
2023-01-12T12:42:33.297Z,13.45
2023-01-12T12:45:20.595Z,13.32
2023-01-12T12:47:59.822Z,13.33
2023-01-12T12:50:38.001Z,13.37
2023-01-12T12:53:21.508Z,13.42
2023-01-12T12:55:58.815Z,13.30
2023-01-12T12:58:43.676Z,13.33
2023-01-12T13:01:39.437Z,13.25
2023-01-12T13:04:16.340Z,13.32
2023-01-12T13:06:50.652Z,13.36
2023-01-12T13:09:41.112Z,13.30
2023-01-12T13:12:32.967Z,13.29
2023-01-12T13:15:22.006Z,13.33
2023-01-12T13:17:56.251Z,13.39
2023-01-12T13:20:51.512Z,13.40
2023-01-12T13:23:49.087Z,13.30
2023-01-12T13:26:47.493Z,13.41
2023-01-12T13:29:40.642Z,13.38
2023-01-12T13:32:37.319Z,13.37
2023-01-12T13:36:02.674Z,13.34
2023-01-12T13:38:53.784Z,13.44
2023-01-12T13:41:49.380Z,13.61
2023-01-12T13:44:29.706Z,13.48
2023-01-12T13:47:11.347Z,13.45
2023-01-12T13:49:49.437Z,13.49
2023-01-12T13:52:28.050Z,13.36
2023-01-12T13:55:01.873Z,13.28
2023-01-12T13:57:34.916Z,13.27
2023-01-12T14:00:10.985Z,13.36
2023-01-12T14:02:54.337Z,13.23
2023-01-12T14:05:42.346Z,13.27
2023-01-12T14:08:50.662Z,13.41
2023-01-12T14:11:49.759Z,13.30
2023-01-12T14:15:10.442Z,13.30
2023-01-12T14:17:52.633Z,13.36
2023-01-12T14:20:28.026Z,13.31
2023-01-12T14:23:15.391Z,13.35
2023-01-12T14:26:07.439Z,13.27
2023-01-12T14:28:42.883Z,13.39
2023-01-12T14:31:25.896Z,13.35
2023-01-12T14:34:04.999Z,13.25
2023-01-12T14:36:44.484Z,13.19
2023-01-12T14:39:23.486Z,13.16
2023-01-12T14:42:15.645Z,13.22
2023-01-12T14:45:09.551Z,13.22
2023-01-12T14:47:43.382Z,13.18
2023-01-12T14:50:24.137Z,13.24
2023-01-12T14:52:57.729Z,13.30
2023-01-12T14:55:44.284Z,13.27
2023-01-12T14:58:24.497Z,13.24
2023-01-12T15:01:03.465Z,13.25
2023-01-12T15:03:43.722Z,13.14
2023-01-12T15:06:18.861Z,13.28
2023-01-12T15:09:00.485Z,13.32
2023-01-12T15:14:30.801Z,13.10
2023-01-12T15:17:32.956Z,13.23
2023-01-12T15:20:33.087Z,13.33
2023-01-12T15:26:26.825Z,13.19
2023-01-12T15:29:00.820Z,13.31
2023-01-12T15:31:36.006Z,13.23
2023-01-12T15:34:12.714Z,13.29
2023-01-12T15:36:45.926Z,13.19
2023-01-12T15:39:19.192Z,13.22
2023-01-12T15:45:18.715Z,13.22
2023-01-12T15:47:52.134Z,13.28
2023-01-12T15:50:25.671Z,13.26
2023-01-12T15:53:03.147Z,13.08
2023-01-12T15:58:27.536Z,13.31
2023-01-12T16:01:06.797Z,13.10
2023-01-12T16:04:04.856Z,13.18
2023-01-12T16:07:05.345Z,13.19
2023-01-12T16:09:50.781Z,13.06
2023-01-12T16:12:24.662Z,13.19
2023-01-12T16:15:01.992Z,13.06
2023-01-12T16:17:45.426Z,13.15
2023-01-12T16:20:20.688Z,13.11
2023-01-12T16:22:55.002Z,13.18
2023-01-12T16:25:28.212Z,13.33
2023-01-12T16:28:02.079Z,13.26
2023-01-12T16:30:35.132Z,13.30
2023-01-12T16:33:09.267Z,13.16
2023-01-12T16:35:42.660Z,13.12
2023-01-12T16:38:16.733Z,13.30
2023-01-12T16:40:51.352Z,13.38
2023-01-12T16:43:25.111Z,13.34
2023-01-12T16:45:58.261Z,13.30
2023-01-12T16:48:34.673Z,13.30
2023-01-12T16:51:14.358Z,13.22
2023-01-12T16:53:48.881Z,13.17
2023-01-12T16:56:22.677Z,13.17
2023-01-12T16:58:56.046Z,13.28
2023-01-12T17:01:30.636Z,13.16
2023-01-12T17:04:07.363Z,13.16
2023-01-12T17:06:43.376Z,13.27
2023-01-12T17:09:17.020Z,13.31
2023-01-12T17:11:51.211Z,13.35
2023-01-12T17:14:24.578Z,13.31
2023-01-12T17:17:04.200Z,13.29
2023-01-12T17:19:42.645Z,13.38
2023-01-12T17:22:15.736Z,13.30
2023-01-12T17:24:49.036Z,13.26
2023-01-12T17:27:21.626Z,13.24
2023-01-12T17:29:54.685Z,13.13
2023-01-12T17:32:27.579Z,13.19
2023-01-12T17:35:04.423Z,13.13
2023-01-12T17:37:39.259Z,13.23
2023-01-12T17:40:12.795Z,13.15
2023-01-12T17:43:02.896Z,13.12
2023-01-12T17:45:42.545Z,13.25
2023-01-12T17:48:19.125Z,13.24
2023-01-12T17:50:53.860Z,13.24
2023-01-12T17:53:26.709Z,13.10
2023-01-12T17:56:03.878Z,13.25
2023-01-12T17:58:37.248Z,13.09
2023-01-12T18:01:14.326Z,13.02
2023-01-12T18:03:47.720Z,13.13
2023-01-12T18:06:27.513Z,13.25
2023-01-12T18:09:00.949Z,13.24
2023-01-12T18:11:37.375Z,13.31
2023-01-12T18:14:11.365Z,13.29
2023-01-12T18:16:44.396Z,13.26
2023-01-12T18:19:17.155Z,13.26
2023-01-12T18:21:51.758Z,13.15
2023-01-12T18:24:24.624Z,13.03
2023-01-12T18:26:58.019Z,13.24
2023-01-12T18:29:31.184Z,13.23
2023-01-12T18:32:04.675Z,13.22
2023-01-12T18:34:38.082Z,13.21
2023-01-12T18:37:13.786Z,13.24
2023-01-12T18:39:47.014Z,13.34
2023-01-12T18:42:37.598Z,13.06
2023-01-12T18:45:11.511Z,13.13
2023-01-12T18:48:02.059Z,13.21
2023-01-12T18:50:52.774Z,13.24
2023-01-12T18:53:30.762Z,13.23
2023-01-12T18:56:06.004Z,13.01
2023-01-12T18:58:40.038Z,13.02
2023-01-12T19:01:19.375Z,13.11
2023-01-12T19:03:53.469Z,13.01
2023-01-12T19:06:36.961Z,13.21
2023-01-12T19:09:30.736Z,13.10
2023-01-12T19:12:04.073Z,13.02
2023-01-12T19:14:54.451Z,13.13
2023-01-12T19:17:30.760Z,13.07
2023-01-12T19:20:09.111Z,13.23
2023-01-12T19:22:59.658Z,13.13
2023-01-12T19:25:51.510Z,13.26
2023-01-12T19:28:36.894Z,13.29
2023-01-12T19:31:30.405Z,13.19
2023-01-12T19:34:04.411Z,13.21
2023-01-12T19:36:42.930Z,13.25
2023-01-12T19:39:38.409Z,13.19
2023-01-12T19:42:42.916Z,13.17
2023-01-12T19:45:37.511Z,13.23
2023-01-12T19:48:32.874Z,13.27
2023-01-12T19:51:14.548Z,13.27
2023-01-12T19:53:56.922Z,13.21
2023-01-12T19:56:31.972Z,13.12
2023-01-12T19:59:14.977Z,13.12
2023-01-12T20:01:53.703Z,13.16
2023-01-12T20:04:34.651Z,13.16
2023-01-12T20:07:11.893Z,13.10
2023-01-12T20:09:55.913Z,13.17
2023-01-12T20:13:00.995Z,13.20
2023-01-12T20:22:09.585Z,13.03
2023-01-12T20:37:56.671Z,13.10
2023-01-12T20:40:30.161Z,13.02
2023-01-12T20:52:48.380Z,12.91
2023-01-12T20:55:22.837Z,12.92
2023-01-12T20:57:59.397Z,12.80
2023-01-12T21:00:32.407Z,12.89
2023-01-12T21:03:05.413Z,13.04
2023-01-12T21:05:42.130Z,12.88
2023-01-12T21:08:16.647Z,12.92
2023-01-12T21:10:55.450Z,12.96
2023-01-12T21:13:28.725Z,12.91
2023-01-12T21:16:13.181Z,12.66
2023-01-12T21:18:46.863Z,12.82
2023-01-12T21:21:19.838Z,12.75
2023-01-12T21:23:52.941Z,12.81
2023-01-12T21:26:27.212Z,12.86
2023-01-12T21:29:00.076Z,12.85
2023-01-12T21:31:32.869Z,12.76
2023-01-12T21:34:05.672Z,12.64
2023-01-12T21:36:38.484Z,12.33
2023-01-12T21:39:11.176Z,12.53
2023-01-12T21:42:02.971Z,12.58
2023-01-12T21:44:36.096Z,12.57
2023-01-12T21:47:08.921Z,12.66
2023-01-12T21:49:43.545Z,12.62
2023-01-12T21:52:16.470Z,12.64
2023-01-12T21:54:49.221Z,12.41
2023-01-12T21:57:23.672Z,12.62
2023-01-12T21:59:56.536Z,12.60
2023-01-12T22:02:31.229Z,12.58
2023-01-12T22:05:04.313Z,12.51
2023-01-12T22:07:37.195Z,12.28
2023-01-12T22:10:20.824Z,12.46
2023-01-12T22:12:57.412Z,12.30
2023-01-12T22:15:30.957Z,12.41
2023-01-12T22:18:04.352Z,12.45
2023-01-12T22:20:37.413Z,12.37
2023-01-12T22:23:12.053Z,12.40
2023-01-12T22:25:45.235Z,12.38
2023-01-12T22:28:19.621Z,12.38
2023-01-12T22:30:52.952Z,12.30
2023-01-12T22:33:26.221Z,12.04
2023-01-12T22:36:02.511Z,12.20
2023-01-12T22:38:35.597Z,11.99
2023-01-12T22:41:10.312Z,12.20
2023-01-12T22:43:44.745Z,11.98
2023-01-12T22:46:19.945Z,12.12
2023-01-12T22:48:55.361Z,11.97
2023-01-12T22:51:29.524Z,11.91
2023-01-12T22:54:02.464Z,11.85
2023-01-12T22:56:35.834Z,11.78
2023-01-12T22:59:10.616Z,12.01
2023-01-12T23:01:43.516Z,11.83
2023-01-12T23:04:16.329Z,11.78
2023-01-12T23:06:49.369Z,11.88
2023-01-12T23:09:22.320Z,11.88
2023-01-12T23:11:55.142Z,11.75
2023-01-12T23:14:29.465Z,11.92
2023-01-12T23:17:02.536Z,11.68
2023-01-12T23:19:35.301Z,11.69
2023-01-12T23:22:08.436Z,11.60
2023-01-12T23:24:41.244Z,11.57
2023-01-12T23:27:14.172Z,11.54
2023-01-12T23:29:48.975Z,11.62
2023-01-12T23:32:22.097Z,11.58
2023-01-12T23:34:55.064Z,11.62
2023-01-12T23:37:27.844Z,11.69
2023-01-12T23:40:00.780Z,11.52
2023-01-12T23:42:33.665Z,11.54
2023-01-12T23:45:09.189Z,11.51
2023-01-12T23:47:44.691Z,11.49
2023-01-12T23:50:18.328Z,11.45
2023-01-12T23:52:51.761Z,11.49
2023-01-12T23:55:27.288Z,11.43
2023-01-12T23:58:00.167Z,11.38
